Nearby METAR Reports

 

KMSN - Madison, Wisconsin, USA
Distance from station: WNW 8mi, 13km
Updated: Wed, Oct-20-2021 4:53pm CDT
Overcast
Overcast
 Wind from SSE
Wind: SSE 10 mph , 17 km/h
Temperature: 72°F , 22°C
Dew Point: 50°F , 10°C
Humidity: 47%
Barometer: 29.84 inHg , 1010.5 hPa
Clouds: Overcast
Visibility: 10 miles , 16 km
Cloud details: Mostly cloudy 4700 ft
Overcast 7000 ft
2021/10/20 21:53 KMSN 202153Z 16009KT 10SM BKN047 OVC070 22/10 A2984 RMK AO2 LTG DSNT SE AND S SLP102 T02170100
KC29 - Middleton, Wisconsin, USA
Distance from station: W 17mi, 27km
Updated: Wed, Oct-20-2021 5:35pm CDT
Overcast
Overcast
 Wind from S
Wind: S 6 mph , 9 km/h
Temperature: 72°F , 22°C
Dew Point: 50°F , 10°C
Humidity: 47%
Barometer: 29.85 inHg , 1010.8 hPa
Clouds: Overcast
Visibility: 10 miles , 16 km
Cloud details: Overcast 4300 ft
2021/10/20 22:35 KC29 202235Z AUTO 17005KT 10SM OVC043 22/10 A2985 RMK AO1 T02150104
 
KRYV - Watertown, Wisconsin, USA
Distance from station: ENE 25mi, 40km
Updated: Wed, Oct-20-2021 5:35pm CDT
Mostly cloudy
Mostly cloudy
 Wind from SE
Wind: SE 6 mph , 9 km/h
Temperature: 64°F , 18°C
Dew Point: 52°F , 11°C
Humidity: 64%
Barometer: 29.86 inHg , 1011.2 hPa
Clouds: Mostly cloudy
Visibility: 10 miles , 16 km
Cloud details: Mostly cloudy 6000 ft
Mostly cloudy 8000 ft
Mostly cloudy 10000 ft
2021/10/20 22:35 KRYV 202235Z AUTO 14005KT 10SM BKN060 BKN080 BKN100 18/11 A2986 RMK AO2 LTG DSNT SE AND S T01840112
KUNU - Juneau, Wisconsin, USA
Distance from station: NE 33mi, 54km
Updated: Wed, Oct-20-2021 5:55pm CDT
Nearby thunderstorm, Overcast
Nearby thunderstorm, Overcast
 Wind from E
Wind: E 9 mph , 15 km/h
Temperature: 63°F , 17°C
Dew Point: 52°F , 11°C
Humidity: 68%
Barometer: 29.87 inHg , 1011.5 hPa
Summary: Nearby Thunderstorm
Clouds: Overcast
Visibility: 10 miles , 16 km
Cloud details: Mostly cloudy 5000 ft
Overcast 7000 ft
2021/10/20 22:55 KUNU 202255Z AUTO 09008KT 10SM VCTS BKN050 OVC070 17/11 A2987 RMK AO2 T01710107
 
KJVL - Janesville/Rock, Wisconsin, USA
Distance from station: SSE 34mi, 55km
Updated: Wed, Oct-20-2021 4:45pm CDT
Partly cloudy
Partly cloudy
 Wind from S
Wind: S 12 mph , 19 km/h
Temperature: 72°F , 22°C
Dew Point: 50°F , 10°C
Humidity: 47%
Barometer: 29.87 inHg , 1011.5 hPa
Clouds: Partly cloudy
Visibility: 10 miles , 16 km
Cloud details: Partly cloudy 4700 ft
Partly cloudy 8000 ft
2021/10/20 21:45 KJVL 202145Z 19010KT 10SM SCT047 SCT080 22/10 A2987
KEFT - Monroe, Wisconsin, USA
Distance from station: SSW 39mi, 63km
Updated: Wed, Oct-20-2021 5:35pm CDT
Partly cloudy
Partly cloudy
 Wind from S
Wind: S 12 mph , 19 km/h
Temperature: 68°F , 20°C
Dew Point: 52°F , 11°C
Humidity: 56%
Barometer: 29.85 inHg , 1010.8 hPa
Clouds: Partly cloudy
Visibility: 10 miles , 16 km
Cloud details: Partly cloudy 4100 ft
2021/10/20 22:35 KEFT 202235Z AUTO 19010KT 10SM SCT041 20/11 A2985 RMK AO2 LTG DSNT SE T02010110
 
KDLL - Dells/Baraboo, Wisconsin, USA
Distance from station: NW 41mi, 65km
Updated: Wed, Oct-20-2021 5:35pm CDT
Overcast
Overcast
 Wind from ENE
Wind: ENE 8 mph , 13 km/h
Temperature: 61°F , 16°C
Dew Point: 54°F , 12°C
Humidity: 77%
Barometer: 29.85 inHg , 1010.8 hPa
Clouds: Overcast
Visibility: 10 miles , 16 km
Cloud details: Overcast 4400 ft
2021/10/20 22:35 KDLL 202235Z AUTO 07007KT 10SM OVC044 16/12 A2985 RMK AO2 T01630117
KUES - Waukesha Cnty, Wisconsin, USA
Distance from station: E 48mi, 77km
Updated: Wed, Oct-20-2021 4:45pm CDT
Clear
Clear
 Wind from E
Wind: E 6 mph , 9 km/h
Temperature: 64°F , 18°C
Dew Point: 52°F , 11°C
Humidity: 64%
Barometer: 29.93 inHg , 1013.5 hPa
Clouds: Clear
Visibility: 10 miles , 16 km
2021/10/20 21:45 KUES 202145Z 08005KT 10SM SKC 18/11 A2993
 
KC35 - Reedsburg, Wisconsin, USA
Distance from station: NW 50mi, 80km
Updated: Wed, Oct-20-2021 5:35pm CDT
Overcast
Overcast
 Wind from ENE
Wind: ENE 5 mph , 7 km/h
Temperature: 63°F , 17°C
Dew Point: 54°F , 12°C
Humidity: 73%
Barometer: 29.84 inHg , 1010.5 hPa
Clouds: Overcast
Visibility: 10 miles , 16 km
Cloud details: Overcast 4600 ft
2021/10/20 22:35 KC35 202235Z AUTO 06004KT 10SM OVC046 17/12 A2984 RMK AO2 T01740122 PWINO
KLNR - Lone Rock, Wisconsin, USA
Distance from station: W 50mi, 81km
Updated: Wed, Oct-20-2021 4:56pm CDT
Overcast
Overcast
 Wind from ESE
Wind: ESE 3 mph , 6 km/h
Temperature: 70°F , 21°C
Dew Point: 54°F , 12°C
Humidity: 57%
Barometer: 29.83 inHg , 1010.2 hPa
Clouds: Overcast
Visibility: 10 miles , 16 km
Cloud details: Overcast 4600 ft
2021/10/20 21:56 KLNR 202156Z AUTO 11003KT 10SM OVC046 21/12 A2983 RMK AO2 SLP095 T02110117
 
KBUU - Burlington, Wisconsin, USA
Distance from station: ESE 54mi, 86km
Updated: Wed, Oct-20-2021 5:35pm CDT

 Wind from S
Wind: S 5 mph , 7 km/h
Temperature: 68°F , 20°C
Dew Point: 52°F , 11°C
Humidity: 56%
Barometer: 29.88 inHg , 1011.9 hPa
Visibility: 10 miles , 16 km
2021/10/20 22:35 KBUU 202235Z AUTO 17004KT 10SM 20/11 A2988 RMK AO2 T01960105 PWINO
KMRJ - Mineral Point, Wisconsin, USA
Distance from station: WSW 54mi, 88km
Updated: Wed, Oct-20-2021 5:35pm CDT
Overcast
Overcast
 Wind from SW
Wind: SW 9 mph , 15 km/h
Temperature: 70°F , 21°C
Dew Point: 52°F , 11°C
Humidity: 53%
Barometer: 29.86 inHg , 1011.2 hPa
Clouds: Overcast
Visibility: 10 miles , 16 km
Cloud details: Overcast 3700 ft
2021/10/20 22:35 KMRJ 202235Z AUTO 22008KT 10SM OVC037 21/11 A2986 RMK AO2
 
KETB - West Bend, Wisconsin, USA
Distance from station: ENE 58mi, 93km
Updated: Sat, Oct-16-2021 9:15am CDT
NOT Current

 Wind from W
Wind: W 14 mph , 22 km/h
Barometer: 29.95 inHg , 1014.2 hPa
2021/10/16 14:15 KETB 161415Z AUTO 28012KT A2995 RMK AO2 PWINO
KFLD - Fond Du Lac, Wisconsin, USA
Distance from station: NE 58mi, 94km
Updated: Wed, Oct-20-2021 4:53pm CDT
Few Clouds
Few Clouds
 Wind from NE
Wind: NE 8 mph , 13 km/h
Temperature: 61°F , 16°C
Dew Point: 54°F , 12°C
Humidity: 77%
Barometer: 29.92 inHg , 1013.2 hPa
Clouds: Few Clouds
Visibility: 10 miles , 16 km
Cloud details: Few Clouds 11000 ft
2021/10/20 21:53 KFLD 202153Z AUTO 05007KT 10SM FEW110 16/12 A2992 RMK AO2 SLP131 T01610122
 
KMWC - Milwaukee/Lawren, Wisconsin, USA
Distance from station: E 59mi, 94km
Updated: Wed, Oct-20-2021 5:45pm CDT
Clear
Clear
 Wind from ESE
Wind: ESE 6 mph , 9 km/h
Temperature: 63°F , 17°C
Dew Point: 52°F , 11°C
Humidity: 68%
Barometer: 29.90 inHg , 1012.5 hPa
Clouds: Clear
Visibility: 10 miles , 16 km
2021/10/20 22:45 KMWC 202245Z 11005KT 10SM CLR 17/11 A2990
KFEP - Freeport, Illinois, USA
Distance from station: SSW 62mi, 100km
Updated: Wed, Oct-20-2021 5:30pm CDT
Partly cloudy
Partly cloudy
 Wind from S
Wind: S 14 mph , 22 km/h, Gust: 17 mph , 28 km/h
Temperature: 70°F , 21°C
Dew Point: 52°F , 11°C
Humidity: 53%
Barometer: 29.88 inHg , 1011.9 hPa
Clouds: Partly cloudy
Visibility: 10 miles , 16 km
Cloud details: Partly cloudy 4200 ft
Partly cloudy 6500 ft
Partly cloudy 9500 ft
2021/10/20 22:30 KFEP 202230Z AUTO 19012G15KT 10SM SCT042 SCT065 SCT095 21/11 A2988 RMK AO2 LTG DSNT SE T02090107
 
KRFD - Rockford, Illinois, USA
Distance from station: S 62mi, 100km
Updated: Wed, Oct-20-2021 4:54pm CDT
Few Clouds
Few Clouds
 Wind from S
Wind: S 13 mph , 20 km/h
Temperature: 72°F , 22°C
Dew Point: 54°F , 12°C
Humidity: 53%
Barometer: 29.89 inHg , 1012.2 hPa
Clouds: Few Clouds
Visibility: 10 miles , 16 km
Cloud details: Few Clouds 11000 ft
2021/10/20 21:54 KRFD 202154Z 19011KT 10SM FEW110 22/12 A2989 RMK AO2 LTG DSNT N SLP121 T02170122
KY50 - Wautoma, Wisconsin, USA
Distance from station: N 65mi, 104km
Updated: Wed, Oct-20-2021 4:56pm CDT
Overcast
Overcast
 Wind from E
Wind: E 10 mph , 17 km/h
Temperature: 63°F , 17°C
Dew Point: 54°F , 12°C
Humidity: 73%
Barometer: 29.89 inHg , 1012.2 hPa
Clouds: Overcast
Cloud details: Overcast 5000 ft
2021/10/20 21:56 KY50 202156Z AUTO 09009KT OVC050 17/12 A2989 RMK AO2 SLP122 T01670122 PWINO $
 
KMKE - Milwaukee, Wisconsin, USA
Distance from station: E 66mi, 107km
Updated: Wed, Oct-20-2021 4:52pm CDT
Few Clouds
Few Clouds
 Wind from ESE
Wind: ESE 9 mph , 15 km/h
Temperature: 66°F , 19°C
Dew Point: 57°F , 14°C
Humidity: 73%
Barometer: 29.91 inHg , 1012.9 hPa
Clouds: Few Clouds
Visibility: 10 miles , 16 km
Cloud details: Few Clouds 6000 ft
Few Clouds 11000 ft
Few Clouds 25000 ft
2021/10/20 21:52 KMKE 202152Z 12008KT 10SM FEW060 FEW110 FEW250 19/14 A2991 RMK AO2 SLP127 TCU DSNT S T01890139
KOSH - Oshkosh, Wisconsin, USA
Distance from station: NNE 68mi, 110km
Updated: Wed, Oct-20-2021 5:22pm CDT
Overcast
Overcast
 Wind from E
Wind: E 9 mph , 15 km/h, Gust: 20 mph , 31 km/h
Temperature: 59°F , 15°C
Dew Point: 55°F , 13°C
Humidity: 88%
Barometer: 29.90 inHg , 1012.5 hPa
Clouds: Overcast
Visibility: 10 miles , 16 km
Cloud details: Partly cloudy 1300 ft
Overcast 5500 ft
2021/10/20 22:22 KOSH 202222Z 08008G17KT 10SM SCT013 OVC055 15/13 A2990 RMK AO2 T01500128